Route Details

Aircraft Information
Group: North America Fleet
Types: B738, B752, B762, B763
Route Data
Distance: 316nm
Duration: 1h 30m
Origin METAR: KSFO 010556Z 29005KT 10SM FEW200 09/05 A3019 RMK AO2 SLP223 T00890050 10156 20089 53008
Dest. METAR: KONT 010553Z 06009KT 10SM CLR 12/M12 A3011 RMK AO2 SLP193 T01221122 10150 20122 53015
Freight Data
(for Feb 1, 2023)
Load Factor:
49%
Manifested Cargo: 53,282lbs
Financial History
Total Freight: 312,323lbs
Average Load: 0lbs/flt
Fuel Used: 69,122lbs
Avg. Fuel Used: 0lbs/flt
Fuel Expense: $34,605
Avg. Fuel Expense: $0
Avg. Fuel Cost: $0/lbs
Total Gross Income: $768,315
Pilot Pay: $2,171
Total Expenses: $161,931
Total Revenue: $567,626
Average Revenue: $0

Capitol Logistics 414




KSFO
San Francisco International Airport
San Francisco, California
KONT
Ontario International Airport
Ontario, California

Activity Log

Date Flight Route Aircraft Duration
12/11/2022 CPX414 WESLA5 KAYEX DCT LOSHN DCT EHF ZIGGY7 B763 1h 08m
12/06/2022 CPX414 SSTIK5 KAYEX DCT LOSHN DCT EHF ZIGGY7 B752 1h 05m
10/03/2022 CPX414 SSTIK5 KAYEX DCT LOSHN DCT EHF ZIGGY7 B763 1h 12m
09/21/2022 CPX414 WESLA5 KAYEX DCT LOSHN DCT EHF ZIGGY7 B763 1h 03m
08/24/2022 CPX414 SSTIK5 KAYEX DCT LOSHN DCT EHF ZIGGY7 B738 1h 19m
08/12/2022 CPX414 SSTIK5 KAYEX DCT LOSHN DCT EHF ZIGGY7 B738 1h 24m
07/15/2022 CPX414 SSTIK5 KAYEX DCT LOSHN DCT EHF ZIGGY7 B738 1h 18m
07/15/2022 CPX414 NIITE3 GOBBS KAYEX LOSHN EHF ZIGGY7 B763 1h 05m
07/13/2022 CPX414 NIITE3 GOBBS KAYEX LOSHN EHF ZIGGY7 B738 1h 15m